Time;durP1;ratioP1;P1;durP2;ratioP2;P2;SDS_P1;SDS_P2;PMS_P1;PMS_P2;Temp;Humidity;BMP_temperature;BMP_pressure;BME280_temperature;BME280_humidity;BME280_pressure;Samples;Min_cycle;Max_cycle;Signal;HPM_P1;HPM_P2
2023/04/10 00:03:09;;;;;;;5.70;4.93;;;;;;;19.68;50.76;97641.69;10376300;28;20441;-75
2023/04/10 00:08:28;;;;;;;5.45;4.95;;;;;;;19.66;50.59;97641.19;10393042;28;20046;-74
2023/04/10 00:13:48;;;;;;;5.47;4.72;;;;;;;19.65;50.55;97630.69;10391896;28;20060;-74
2023/04/10 00:19:07;;;;;;;5.75;4.97;;;;;;;19.63;50.51;97627.50;10377723;28;20398;-74
2023/04/10 00:24:27;;;;;;;6.07;5.00;;;;;;;19.62;50.21;97621.28;10377509;28;20046;-74
2023/04/10 00:29:46;;;;;;;4.93;4.30;;;;;;;19.63;50.29;97630.19;10366862;28;20056;-74
2023/04/10 00:35:07;;;;;;;5.25;4.75;;;;;;;19.62;50.00;97612.38;10377303;28;20050;-74
2023/04/10 00:40:29;;;;;;;4.97;4.35;;;;;;;19.60;50.08;97610.00;10349978;28;20042;-74
2023/04/10 00:45:48;;;;;;;5.57;4.57;;;;;;;19.59;49.98;97610.28;10391679;28;20414;-75
2023/04/10 00:51:08;;;;;;;5.82;4.65;;;;;;;19.58;49.87;97612.16;10362982;28;20115;-74
2023/04/10 00:56:30;;;;;;;4.78;4.38;;;;;;;19.57;49.90;97613.28;10376440;28;20045;-75
2023/04/10 01:01:49;;;;;;;5.10;4.53;;;;;;;19.56;49.73;97603.56;10376255;28;20053;-75
2023/04/10 01:07:13;;;;;;;5.28;4.55;;;;;;;19.54;49.75;97598.50;10375847;28;20053;-74
2023/04/10 01:13:10;;;;;;;4.82;4.30;;;;;;;19.53;49.54;97588.78;10374534;28;20141;-74
2023/04/10 01:18:38;;;;;;;4.80;4.30;;;;;;;19.53;49.56;97587.97;10390458;28;20052;-75
2023/04/10 01:24:35;;;;;;;4.53;4.13;;;;;;;19.52;49.48;97581.78;10375229;28;20046;-74
2023/04/10 01:29:57;;;;;;;3.85;3.55;;;;;;;19.50;49.40;97586.69;10363970;28;20057;-74
2023/04/10 01:35:18;;;;;;;4.82;3.95;;;;;;;19.50;49.18;97588.56;10361460;28;20061;-74
2023/04/10 01:40:38;;;;;;;4.93;4.20;;;;;;;19.49;49.42;97581.59;10361084;28;20046;-74
2023/04/10 01:46:00;;;;;;;4.53;4.13;;;;;;;19.47;49.39;97595.41;10374278;28;20038;-74
2023/04/10 01:51:20;;;;;;;4.07;3.78;;;;;;;19.46;49.27;97582.97;10360518;28;20041;-74
2023/04/10 01:56:40;;;;;;;4.95;4.22;;;;;;;19.44;49.15;97579.78;10360158;28;20052;-74
2023/04/10 02:02:01;;;;;;;4.78;4.20;;;;;;;19.45;49.25;97581.38;10360417;28;20068;-75
2023/04/10 02:07:59;;;;;;;4.65;4.20;;;;;;;19.43;49.20;97591.69;10373720;28;20483;-75
2023/04/10 02:13:21;;;;;;;5.50;4.13;;;;;;;19.42;49.10;97587.38;10342658;28;20058;-75
2023/04/10 02:18:42;;;;;;;3.50;3.20;;;;;;;19.42;49.08;97589.28;10359783;28;20041;-74
2023/04/10 02:24:02;;;;;;;5.05;3.80;;;;;;;19.41;49.21;97585.00;10359188;28;20037;-75
2023/04/10 02:29:22;;;;;;;4.65;4.25;;;;;;;19.38;49.35;97583.69;10363290;28;20499;-75
2023/04/10 02:34:42;;;;;;;5.30;4.13;;;;;;;19.38;48.95;97575.59;10359174;28;20049;-75
2023/04/10 02:40:02;;;;;;;4.35;3.90;;;;;;;19.38;48.92;97582.91;10372653;28;20042;-75
2023/04/10 02:45:32;;;;;;;4.25;3.85;;;;;;;19.37;49.11;97582.13;10346160;28;20413;-75
2023/04/10 02:50:58;;;;;;;4.30;3.83;;;;;;;19.36;48.93;97585.91;10359039;28;20096;-74
2023/04/10 02:56:18;;;;;;;3.90;3.60;;;;;;;19.33;48.98;97586.53;10358766;28;20046;-74
2023/04/10 03:01:38;;;;;;;3.95;3.60;;;;;;;19.32;48.89;97587.63;10373518;28;20108;-74
2023/04/10 03:06:58;;;;;;;3.92;3.60;;;;;;;19.31;48.90;97594.94;10386859;28;20050;-75
2023/04/10 03:12:17;;;;;;;3.95;3.60;;;;;;;19.31;48.97;97591.44;10372043;28;20038;-74
2023/04/10 03:17:36;;;;;;;4.10;3.70;;;;;;;19.31;48.80;97597.63;10358367;28;20041;-74
2023/04/10 03:22:59;;;;;;;4.00;3.67;;;;;;;19.30;48.88;97606.03;10344967;28;20536;-74
2023/04/10 03:28:20;;;;;;;4.00;3.60;;;;;;;19.27;48.79;97601.25;10351281;28;20101;-74
2023/04/10 03:33:40;;;;;;;4.13;3.72;;;;;;;19.25;48.72;97593.44;10357958;28;20045;-74
2023/04/10 03:39:00;;;;;;;3.58;3.25;;;;;;;19.25;48.71;97598.84;10393286;28;20049;-74
2023/04/10 03:44:21;;;;;;;4.15;3.75;;;;;;;19.25;48.63;97603.44;10379285;28;20042;-74
2023/04/10 03:49:40;;;;;;;4.43;3.67;;;;;;;19.23;48.46;97603.75;10352343;28;20490;-75
2023/04/10 03:55:00;;;;;;;3.50;3.20;;;;;;;19.23;48.67;97594.81;10378852;28;20050;-74
2023/04/10 04:00:21;;;;;;;4.10;3.50;;;;;;;19.22;48.78;97598.66;10365042;28;20046;-74
2023/04/10 04:05:40;;;;;;;4.13;3.72;;;;;;;19.20;48.56;97604.34;10393047;28;20045;-74
2023/04/10 04:11:37;;;;;;;3.95;3.53;;;;;;;19.20;48.70;97611.66;10383266;28;20073;-74
2023/04/10 04:17:02;;;;;;;3.63;3.33;;;;;;;19.17;48.68;97621.97;10365264;28;20050;-74
2023/04/10 04:22:41;;;;;;;3.63;3.33;;;;;;;19.17;48.50;97619.25;10369385;28;20497;-74
2023/04/10 04:28:19;;;;;;;3.70;3.35;;;;;;;19.17;48.33;97623.88;10385700;28;20671;-74
2023/04/10 04:33:50;;;;;;;4.03;3.20;;;;;;;19.16;48.44;97619.56;10365214;28;20050;-74
2023/04/10 04:39:42;;;;;;;3.85;3.35;;;;;;;19.14;48.45;97627.16;10364292;28;20069;-75
2023/04/10 04:45:17;;;;;;;3.85;3.55;;;;;;;19.14;48.50;97629.88;10379067;28;20479;-75
2023/04/10 04:50:57;;;;;;;3.72;3.30;;;;;;;19.14;48.51;97636.06;10344501;28;20058;-75
2023/04/10 04:56:52;;;;;;;3.58;3.28;;;;;;;19.14;48.56;97636.06;10310270;28;20054;-75
2023/04/10 05:02:35;;;;;;;4.20;3.35;;;;;;;19.16;48.29;97644.66;10376242;28;20058;-74
2023/04/10 05:08:25;;;;;;;3.40;3.10;;;;;;;19.17;48.81;97642.78;10366288;28;20046;-75
2023/04/10 05:14:03;;;;;;;;;;;;;;;19.19;48.80;97642.44;10391027;28;20411;-74
2023/04/10 05:19:34;;;;;;;3.33;3.03;;;;;;;19.20;48.56;97644.84;10377191;28;19921;-75
2023/04/10 05:25:12;;;;;;;3.50;3.20;;;;;;;19.24;48.72;97650.47;10376364;28;20042;-76
2023/04/10 05:30:51;;;;;;;4.10;3.70;;;;;;;19.26;48.73;97642.88;10364146;28;20796;-76
2023/04/10 05:36:39;;;;;;;3.90;3.45;;;;;;;19.28;48.61;97646.84;10368917;28;20057;-76
2023/04/10 05:42:12;;;;;;;3.67;3.38;;;;;;;19.31;48.91;97651.66;10362691;28;20053;-76
2023/04/10 05:48:00;;;;;;;3.60;3.30;;;;;;;19.35;48.93;97659.97;10355173;28;20388;-76
2023/04/10 05:53:36;;;;;;;6.03;3.67;;;;;;;19.38;48.83;97658.56;10374256;28;20046;-76
2023/04/10 05:59:14;;;;;;;3.38;3.08;;;;;;;19.42;48.92;97668.44;10376146;28;20112;-74
2023/04/10 06:04:52;;;;;;;4.65;4.00;;;;;;;19.44;48.57;97670.84;10376483;28;20049;-77
2023/04/10 06:10:12;;;;;;;6.10;4.90;;;;;;;19.48;48.42;97667.28;10360031;28;20049;-74
2023/04/10 06:15:32;;;;;;;5.35;4.85;;;;;;;19.51;48.32;97668.56;10346420;28;20052;-74
2023/04/10 06:20:52;;;;;;;5.35;4.72;;;;;;;19.54;48.35;97668.75;10359596;28;20050;-74
2023/04/10 06:26:12;;;;;;;7.80;4.93;;;;;;;19.58;48.41;97674.34;10358274;28;20057;-73
2023/04/10 06:31:32;;;;;;;10.73;5.47;;;;;;;19.60;48.49;97680.25;10373035;28;20433;-75
2023/04/10 06:36:53;;;;;;;15.02;5.63;;;;;;;19.63;48.50;97678.84;10387678;28;20453;-74
2023/04/10 06:42:13;;;;;;;11.85;5.97;;;;;;;19.64;48.53;97677.72;10372712;28;20454;-74
2023/04/10 06:47:37;;;;;;;9.70;5.72;;;;;;;19.66;48.34;97684.47;10372428;28;20497;-74
2023/04/10 06:52:58;;;;;;;11.25;6.10;;;;;;;19.70;48.20;97676.53;10358770;28;20038;-74
2023/04/10 06:58:19;;;;;;;10.95;6.00;;;;;;;19.72;48.17;97677.06;10372329;28;20466;-74
2023/04/10 07:03:39;;;;;;;12.32;5.90;;;;;;;19.75;48.18;97681.84;10387123;28;20137;-74
2023/04/10 07:08:59;;;;;;;9.70;5.53;;;;;;;19.75;47.67;97671.81;10346270;28;20049;-74
2023/04/10 07:14:18;;;;;;;8.80;5.90;;;;;;;19.78;47.65;97675.84;10366779;28;20056;-74
2023/04/10 07:19:38;;;;;;;10.45;6.32;;;;;;;19.79;47.38;97674.72;10366541;28;20065;-74
2023/04/10 07:24:57;;;;;;;10.20;6.18;;;;;;;19.83;47.38;97664.91;10393665;28;20041;-74
2023/04/10 07:30:17;;;;;;;12.05;6.22;;;;;;;19.88;47.30;97669.41;10367843;28;20057;-74
2023/04/10 07:35:37;;;;;;;10.73;5.97;;;;;;;19.89;47.13;97671.78;10379652;28;20355;-74
2023/04/10 07:40:57;;;;;;;10.85;6.10;;;;;;;19.92;47.36;97673.91;10378862;28;20045;-73
2023/04/10 07:46:17;;;;;;;7.57;5.78;;;;;;;19.94;47.50;97679.00;10379010;28;20042;-74
2023/04/10 07:51:37;;;;;;;10.40;6.10;;;;;;;19.94;47.57;97668.97;10379022;28;20052;-74
2023/04/10 07:56:56;;;;;;;8.30;5.63;;;;;;;19.98;47.54;97666.47;10378631;28;20054;-72
2023/04/10 08:02:15;;;;;;;9.23;7.72;;;;;;;20.00;45.16;97658.06;10378582;28;20064;-74
2023/04/10 08:07:37;;;;;;;10.00;7.80;;;;;;;20.01;40.63;97660.44;10351227;28;20053;-74
2023/04/10 08:12:56;;;;;;;10.00;8.95;;;;;;;19.90;38.88;97657.19;10348809;28;20053;-74
2023/04/10 08:18:15;;;;;;;8.05;6.50;;;;;;;20.00;42.94;97660.75;10377956;28;20050;-74
2023/04/10 08:23:35;;;;;;;8.85;7.70;;;;;;;19.94;37.25;97654.66;10376929;28;20483;-74
2023/04/10 08:28:56;;;;;;;8.63;7.50;;;;;;;19.69;35.42;97654.09;10363957;28;20069;-74
2023/04/10 08:34:16;;;;;;;8.02;7.13;;;;;;;19.72;35.25;97647.34;10377255;28;20053;-74
2023/04/10 08:39:35;;;;;;;8.98;7.43;;;;;;;19.75;34.79;97649.41;10349621;28;20042;-74
2023/04/10 08:44:54;;;;;;;8.63;7.07;;;;;;;19.65;34.15;97649.59;10362523;28;20048;-74
2023/04/10 08:50:15;;;;;;;11.85;8.90;;;;;;;19.60;34.50;97652.41;10376663;28;20041;-74
2023/04/10 08:55:34;;;;;;;7.10;6.40;;;;;;;19.85;37.86;97653.78;10376577;28;20069;-75
2023/04/10 09:00:54;;;;;;;7.43;6.40;;;;;;;19.94;38.27;97641.94;10390893;28;20045;-75
2023/04/10 09:06:14;;;;;;;7.88;6.65;;;;;;;20.02;38.65;97640.41;10376251;28;20041;-75
2023/04/10 09:11:55;;;;;;;12.10;6.22;;;;;;;20.08;39.35;97641.09;10362196;28;20050;-74
2023/04/10 09:17:24;;;;;;;7.30;6.60;;;;;;;20.12;39.88;97636.66;10375456;28;20041;-74
2023/04/10 09:22:43;;;;;;;6.93;6.20;;;;;;;20.18;40.21;97640.06;10361785;28;20041;-74
2023/04/10 09:28:05;;;;;;;7.80;6.53;;;;;;;20.20;40.71;97641.34;10355350;28;20054;-75
2023/04/10 09:33:26;;;;;;;8.82;7.93;;;;;;;20.18;36.20;97637.34;10360377;28;20046;-74
2023/04/10 09:38:50;;;;;;;7.85;6.35;;;;;;;20.22;39.58;97631.00;10374853;28;20046;-74
2023/04/10 09:44:10;;;;;;;7.25;6.55;;;;;;;20.24;39.75;97611.75;10345081;28;20045;-74
2023/04/10 09:49:43;;;;;;;7.90;7.10;;;;;;;20.25;40.06;97606.03;10374409;28;20049;-74
2023/04/10 09:55:05;;;;;;;10.73;6.95;;;;;;;20.27;40.35;97595.72;10374125;28;20053;-74
2023/04/10 10:00:42;;;;;;;10.30;7.55;;;;;;;20.32;40.92;97592.06;10533503;28;20432;-48
2023/04/10 10:06:03;;;;;;;7.82;7.03;;;;;;;20.34;40.61;97589.84;10533649;28;20052;-46
2023/04/10 10:11:23;;;;;;;7.72;7.03;;;;;;;20.35;41.87;97589.53;10546095;28;20098;-46
2023/04/10 10:16:49;;;;;;;8.32;7.43;;;;;;;20.40;38.83;97585.91;10545624;28;20037;-46
2023/04/10 10:22:09;;;;;;;9.77;8.63;;;;;;;20.41;35.95;97573.97;10545643;28;20048;-50
2023/04/10 10:27:36;;;;;;;8.25;7.30;;;;;;;20.43;37.93;97571.75;10532312;28;20566;-47
2023/04/10 10:32:57;;;;;;;8.13;7.32;;;;;;;20.42;39.78;97569.34;10534858;28;20044;-57
2023/04/10 10:38:18;;;;;;;9.52;6.95;;;;;;;20.40;39.80;97566.94;10544688;28;20101;-48
2023/04/10 10:43:37;;;;;;;8.13;6.70;;;;;;;20.41;40.11;97560.44;10545688;28;20051;-48
2023/04/10 10:48:57;;;;;;;7.38;6.68;;;;;;;20.42;40.45;97553.13;10545287;28;20408;-46
2023/04/10 10:54:28;;;;;;;7.55;6.60;;;;;;;20.43;41.41;97549.31;10545400;28;20063;-47
2023/04/10 10:59:48;;;;;;;11.73;7.03;;;;;;;20.46;41.81;97538.63;10569059;28;20063;-48
2023/04/10 11:05:08;;;;;;;7.63;6.82;;;;;;;20.47;43.07;97529.44;10573145;28;20149;-47
2023/04/10 11:11:03;;;;;;;7.63;6.75;;;;;;;20.49;43.61;97526.41;10566768;28;20055;-48
2023/04/10 11:16:42;;;;;;;11.10;7.22;;;;;;;20.49;43.61;97510.16;10558506;28;20044;-48
2023/04/10 11:22:03;;;;;;;;;;;;;;;20.50;43.93;97509.88;10558619;28;20051;-46
2023/04/10 11:27:48;;;;;;;7.22;6.53;;;;;;;20.51;43.65;97499.84;10557860;28;19920;-46
2023/04/10 11:33:07;;;;;;;9.05;6.40;;;;;;;20.51;43.84;97497.13;10557805;28;20040;-49
2023/04/10 11:38:26;;;;;;;5.80;5.28;;;;;;;20.49;43.86;97483.91;10557580;28;20036;-47
2023/04/10 11:43:50;;;;;;;6.97;6.22;;;;;;;20.50;43.43;97487.41;10557413;28;20048;-46
2023/04/10 11:49:10;;;;;;;6.75;6.15;;;;;;;20.47;37.50;97478.00;10557237;28;20093;-48
2023/04/10 11:54:31;;;;;;;7.32;6.63;;;;;;;20.49;38.51;97478.47;10557084;28;20040;-49
2023/04/10 11:59:51;;;;;;;7.05;6.35;;;;;;;20.44;38.93;97472.41;10544168;28;20056;-48
2023/04/10 12:05:10;;;;;;;7.30;5.60;;;;;;;20.43;38.93;97470.84;10556352;28;20047;-48
2023/04/10 12:10:44;;;;;;;6.05;5.55;;;;;;;20.42;39.35;97461.91;10556299;28;20044;-46
2023/04/10 12:16:06;;;;;;;6.30;5.70;;;;;;;20.43;39.64;97451.88;10555721;28;20040;-46
2023/04/10 12:21:26;;;;;;;6.55;5.95;;;;;;;20.41;39.93;97448.69;10541233;28;20047;-47
2023/04/10 12:26:48;;;;;;;6.65;5.97;;;;;;;20.41;40.37;97435.16;10555749;28;20052;-47
2023/04/10 12:32:08;;;;;;;6.85;6.25;;;;;;;20.42;40.93;97425.91;10555243;28;20044;-47
2023/04/10 12:37:51;;;;;;;6.30;5.75;;;;;;;20.42;41.12;97412.41;10541405;28;20059;-46
2023/04/10 12:43:10;;;;;;;6.70;6.00;;;;;;;20.42;41.67;97417.81;10554832;28;20047;-48
2023/04/10 12:48:30;;;;;;;7.22;5.70;;;;;;;20.42;42.30;97415.09;10555021;28;20044;-49
2023/04/10 12:53:49;;;;;;;6.63;6.03;;;;;;;20.42;42.60;97407.78;10552239;28;20301;-46
2023/04/10 12:59:10;;;;;;;6.10;5.60;;;;;;;20.43;42.82;97403.97;10539741;28;20059;-46
2023/04/10 13:04:31;;;;;;;5.85;5.35;;;;;;;20.43;42.92;97387.72;10549888;28;20065;-46
2023/04/10 13:09:50;;;;;;;6.15;5.55;;;;;;;20.42;42.91;97380.72;10552256;28;20054;-49
2023/04/10 13:15:09;;;;;;;6.78;5.15;;;;;;;20.41;42.88;97372.94;10553790;28;20055;-46
2023/04/10 13:20:29;;;;;;;5.88;5.38;;;;;;;20.42;42.85;97358.28;10553641;28;20036;-47
2023/04/10 13:25:49;;;;;;;7.13;5.68;;;;;;;20.41;43.04;97352.06;10553287;28;20074;-48
2023/04/10 13:31:09;;;;;;;6.32;5.60;;;;;;;20.42;43.38;97363.69;10552960;28;20491;-49
2023/04/10 13:36:30;;;;;;;5.90;5.30;;;;;;;20.40;43.21;97344.25;10553215;28;20442;-47
2023/04/10 13:41:49;;;;;;;6.10;5.50;;;;;;;20.39;43.12;97338.06;10539312;28;20056;-47
2023/04/10 13:47:09;;;;;;;6.03;5.35;;;;;;;20.39;43.18;97331.84;10552931;28;20048;-47
2023/04/10 13:52:28;;;;;;;6.40;5.30;;;;;;;20.39;43.15;97323.75;10552822;28;20385;-52
2023/04/10 13:57:48;;;;;;;6.10;5.35;;;;;;;20.37;43.07;97309.72;10546056;28;20058;-51
2023/04/10 14:03:09;;;;;;;5.72;5.13;;;;;;;20.38;38.73;97308.59;10552520;28;20052;-49
2023/04/10 14:08:28;;;;;;;5.18;4.78;;;;;;;20.31;35.84;97304.47;10552109;28;20052;-50
2023/04/10 14:13:48;;;;;;;6.00;5.43;;;;;;;20.27;35.25;97300.78;10552437;28;20040;-48
2023/04/10 14:19:08;;;;;;;5.35;4.88;;;;;;;20.25;37.64;97294.91;10551970;28;20040;-48
2023/04/10 14:24:27;;;;;;;5.15;4.60;;;;;;;20.26;38.72;97296.47;10538840;28;20117;-47
2023/04/10 14:29:46;;;;;;;5.30;4.80;;;;;;;20.27;39.63;97291.88;10551460;28;20044;-48
2023/04/10 14:35:06;;;;;;;4.75;4.35;;;;;;;20.27;39.99;97284.56;10538591;28;20052;-50
2023/04/10 14:40:25;;;;;;;5.13;4.35;;;;;;;20.27;40.45;97279.16;10551806;28;20040;-50
2023/04/10 14:45:44;;;;;;;4.90;4.18;;;;;;;20.26;40.79;97282.97;10557275;28;20043;-48
2023/04/10 14:51:11;;;;;;;5.93;4.60;;;;;;;20.26;41.13;97280.25;10559285;28;20097;-49
2023/04/10 14:56:31;;;;;;;6.03;5.43;;;;;;;20.26;41.43;97272.13;10556181;28;20515;-50
2023/04/10 15:01:52;;;;;;;5.43;4.72;;;;;;;20.27;41.77;97272.94;10559065;28;20040;-48
2023/04/10 15:07:12;;;;;;;5.07;4.65;;;;;;;20.29;41.84;97257.97;10558811;28;20047;-49
2023/04/10 15:12:32;;;;;;;5.20;4.68;;;;;;;20.29;42.08;97252.56;10558594;28;20481;-47
2023/04/10 15:17:51;;;;;;;5.47;4.88;;;;;;;20.30;42.23;97251.44;10558180;28;20040;-49
2023/04/10 15:23:11;;;;;;;5.25;4.85;;;;;;;20.32;42.50;97237.59;10557785;28;20044;-49
2023/04/10 15:28:30;;;;;;;5.00;4.60;;;;;;;20.32;42.48;97245.72;10557692;28;20051;-49
2023/04/10 15:33:51;;;;;;;3.92;3.55;;;;;;;20.31;42.49;97239.53;10542448;28;20044;-49
2023/04/10 15:39:10;;;;;;;3.30;2.92;;;;;;;20.29;42.71;97232.84;10557385;28;20043;-48
2023/04/10 15:44:30;;;;;;;4.30;3.95;;;;;;;20.29;42.86;97228.22;10528556;28;20052;-47
2023/04/10 15:49:50;;;;;;;5.90;5.40;;;;;;;20.27;38.47;97227.75;10557090;28;20044;-50
2023/04/10 15:55:09;;;;;;;6.32;5.60;;;;;;;20.19;34.28;97217.72;10556857;28;20043;-50
2023/04/10 16:00:29;;;;;;;6.07;5.57;;;;;;;20.08;32.41;97206.41;10527258;28;20048;-50
2023/04/10 16:05:49;;;;;;;5.75;5.25;;;;;;;20.03;31.95;97192.25;10556626;28;20047;-50
2023/04/10 16:11:09;;;;;;;6.32;5.72;;;;;;;20.00;32.78;97179.38;10556299;28;20044;-49
2023/04/10 16:16:29;;;;;;;4.97;4.57;;;;;;;20.01;35.88;97176.31;10542634;28;20071;-47
2023/04/10 16:21:49;;;;;;;5.38;4.88;;;;;;;20.01;35.69;97167.44;10555922;28;20067;-49
2023/04/10 16:27:09;;;;;;;4.32;3.92;;;;;;;20.02;36.16;97156.31;10555617;28;20044;-49
2023/04/10 16:32:28;;;;;;;4.20;3.80;;;;;;;20.03;37.15;97162.50;10554899;28;20466;-50
2023/04/10 16:37:48;;;;;;;5.10;4.68;;;;;;;20.02;37.49;97145.47;10554652;28;20222;-46
2023/04/10 16:43:08;;;;;;;5.05;4.55;;;;;;;20.05;38.02;97135.94;10554877;28;20040;-49
2023/04/10 16:48:27;;;;;;;3.90;3.50;;;;;;;20.05;38.51;97127.81;10554809;28;20040;-48
2023/04/10 16:53:46;;;;;;;5.18;4.68;;;;;;;20.04;38.87;97131.66;10554472;28;20404;-47
2023/04/10 16:59:06;;;;;;;4.90;4.50;;;;;;;20.02;39.29;97123.06;10544022;28;20048;-49
2023/04/10 17:04:25;;;;;;;4.70;4.30;;;;;;;20.02;39.37;97109.53;10554026;28;20040;-49
2023/04/10 17:09:45;;;;;;;4.72;4.32;;;;;;;19.98;39.40;97106.69;10553409;28;20527;-51
2023/04/10 17:15:05;;;;;;;5.38;4.50;;;;;;;19.98;39.86;97105.88;10540334;28;20127;-49
2023/04/10 17:20:26;;;;;;;5.00;4.50;;;;;;;19.99;40.03;97104.75;10537748;28;20040;-49
2023/04/10 17:25:46;;;;;;;5.05;4.47;;;;;;;19.97;40.24;97099.66;10553309;28;20036;-47
2023/04/10 17:31:06;;;;;;;5.22;4.18;;;;;;;19.97;40.37;97105.06;10553131;28;20541;-49
2023/04/10 17:36:25;;;;;;;6.63;4.80;;;;;;;19.95;40.25;97099.19;10552997;28;20446;-49
2023/04/10 17:41:45;;;;;;;5.38;4.40;;;;;;;19.94;41.31;97111.13;10552935;28;20101;-48
2023/04/10 17:47:04;;;;;;;5.25;4.80;;;;;;;19.93;41.25;97096.81;10552919;28;20051;-47
2023/04/10 17:52:24;;;;;;;6.75;5.20;;;;;;;19.94;41.59;97103.81;10552727;28;20044;-49
2023/04/10 17:57:44;;;;;;;5.43;4.78;;;;;;;19.94;42.50;97090.28;10546198;28;20051;-47
2023/04/10 18:03:03;;;;;;;20.42;16.02;;;;;;;19.94;43.10;97084.88;10552361;28;20062;-47
2023/04/10 18:08:24;;;;;;;60.25;43.72;;;;;;;19.94;44.05;97084.88;10552252;28;20166;-48
2023/04/10 18:13:45;;;;;;;43.97;29.83;;;;;;;19.92;45.02;97087.09;10538844;28;20051;-46
2023/04/10 18:19:05;;;;;;;32.75;23.30;;;;;;;19.91;44.66;97090.91;10554792;28;20099;-46
2023/04/10 18:24:24;;;;;;;17.67;12.82;;;;;;;19.91;44.54;97090.91;10560551;28;20044;-46
2023/04/10 18:29:44;;;;;;;22.17;16.05;;;;;;;19.90;44.32;97078.53;10560396;28;20044;-51
2023/04/10 18:35:04;;;;;;;17.15;13.15;;;;;;;19.89;44.64;97082.31;10560100;28;20480;-54
2023/04/10 18:40:24;;;;;;;14.60;12.18;;;;;;;19.90;45.13;97085.84;10559872;28;20404;-55
2023/04/10 18:45:44;;;;;;;13.68;9.68;;;;;;;19.88;45.05;97071.84;10559776;28;20040;-54
2023/04/10 18:51:03;;;;;;;14.05;9.70;;;;;;;19.87;45.16;97068.34;10559553;28;20511;-51
2023/04/10 18:56:23;;;;;;;14.48;10.73;;;;;;;19.87;45.11;97073.75;10556736;28;20044;-51
2023/04/10 19:01:42;;;;;;;32.72;11.65;;;;;;;19.87;45.04;97068.34;10559018;28;20486;-55
2023/04/10 19:07:02;;;;;;;15.70;10.50;;;;;;;19.86;45.06;97061.34;10558911;28;20043;-54
2023/04/10 19:12:22;;;;;;;12.52;8.63;;;;;;;19.85;45.19;97059.75;10558701;28;20503;-54
2023/04/10 19:17:41;;;;;;;9.75;7.60;;;;;;;19.85;45.24;97050.84;10558431;28;20050;-51
2023/04/10 19:23:01;;;;;;;11.75;7.05;;;;;;;19.84;45.12;97047.34;10558212;28;20409;-55
2023/04/10 19:28:21;;;;;;;9.73;7.88;;;;;;;19.83;45.06;97045.75;10557722;28;20040;-52
2023/04/10 19:33:41;;;;;;;9.23;7.35;;;;;;;19.83;45.17;97034.16;10557868;28;20438;-52
2023/04/10 19:39:00;;;;;;;10.90;7.80;;;;;;;19.81;45.14;97023.66;10557551;28;20052;-47
2023/04/10 19:44:19;;;;;;;7.43;6.63;;;;;;;19.80;45.00;97018.56;10557484;28;20114;-45
2023/04/10 19:49:39;;;;;;;10.30;6.25;;;;;;;19.79;44.99;97017.00;10557206;28;20411;-46
2023/04/10 19:54:58;;;;;;;10.35;6.45;;;;;;;19.80;44.99;97018.56;10556972;28;20047;-48
2023/04/10 20:00:18;;;;;;;11.15;6.53;;;;;;;19.79;45.08;97008.88;10543158;28;20048;-53
2023/04/10 20:05:37;;;;;;;10.27;6.88;;;;;;;19.78;45.36;97001.88;10556550;28;20040;-51
2023/04/10 20:10:57;;;;;;;10.57;6.75;;;;;;;19.75;45.30;96984.38;10542863;28;20040;-52
2023/04/10 20:16:16;;;;;;;10.07;6.57;;;;;;;19.73;45.19;96973.91;10555903;28;20112;-46
2023/04/10 20:21:35;;;;;;;9.73;6.75;;;;;;;19.73;45.56;96970.41;10555954;28;20090;-45
2023/04/10 20:26:56;;;;;;;9.88;7.32;;;;;;;19.75;45.78;96968.97;10555996;28;20052;-47
2023/04/10 20:32:16;;;;;;;8.88;6.20;;;;;;;19.77;45.82;96959.75;10555651;28;20481;-45
2023/04/10 20:37:35;;;;;;;10.75;6.50;;;;;;;19.77;45.88;96955.13;10555340;28;20039;-45
2023/04/10 20:42:55;;;;;;;10.60;6.88;;;;;;;19.77;45.89;96955.13;10540271;28;20075;-46
2023/04/10 20:48:15;;;;;;;13.18;7.55;;;;;;;19.75;46.10;96950.03;10554881;28;20044;-45
2023/04/10 20:53:35;;;;;;;9.50;6.45;;;;;;;19.75;45.96;96954.66;10554780;28;20040;-48
2023/04/10 20:58:54;;;;;;;10.93;7.13;;;;;;;19.75;45.89;96946.56;10544898;28;20048;-45
2023/04/10 21:04:14;;;;;;;11.73;6.78;;;;;;;19.74;45.99;96947.69;10554370;28;20397;-46
2023/04/10 21:09:33;;;;;;;10.63;6.70;;;;;;;19.72;46.19;96934.47;10554150;28;20119;-45
2023/04/10 21:14:53;;;;;;;15.00;7.35;;;;;;;19.74;46.21;96928.75;10540211;28;20105;-45
2023/04/10 21:20:12;;;;;;;13.35;7.07;;;;;;;19.73;46.24;96932.56;10553734;28;20036;-45
2023/04/10 21:25:34;;;;;;;16.85;7.60;;;;;;;19.73;46.41;96919.06;10554241;28;20040;-45
2023/04/10 21:30:54;;;;;;;14.73;7.47;;;;;;;19.72;46.37;96920.19;10553474;28;20101;-47
2023/04/10 21:36:13;;;;;;;16.90;7.13;;;;;;;19.71;46.34;96911.25;10552961;28;20040;-47
2023/04/10 21:41:32;;;;;;;14.43;7.15;;;;;;;19.70;46.35;96893.44;10553259;28;20403;-45
2023/04/10 21:46:52;;;;;;;13.27;7.30;;;;;;;19.69;46.53;96891.84;10552952;28;20058;-45
2023/04/10 21:52:11;;;;;;;16.90;8.25;;;;;;;19.70;46.48;96892.66;10539369;28;20051;-46
2023/04/10 21:57:30;;;;;;;15.43;8.05;;;;;;;19.67;46.51;96885.97;10546407;28;20059;-45
2023/04/10 22:02:50;;;;;;;17.42;8.32;;;;;;;19.68;46.83;96897.56;10552650;28;20097;-46
2023/04/10 22:08:10;;;;;;;12.02;5.35;;;;;;;19.67;47.22;96894.06;10552484;28;20051;-49
2023/04/10 22:13:29;;;;;;;14.02;7.25;;;;;;;19.65;47.09;96871.97;10552495;28;20044;-49
2023/04/10 22:18:49;;;;;;;14.80;6.80;;;;;;;19.64;47.12;96854.19;10552041;28;20408;-46
2023/04/10 22:24:08;;;;;;;8.95;5.82;;;;;;;19.62;47.17;96858.31;10552113;28;20051;-47
2023/04/10 22:29:27;;;;;;;8.80;5.68;;;;;;;19.61;47.07;96857.53;10552055;28;20051;-47
2023/04/10 22:34:47;;;;;;;9.50;5.82;;;;;;;19.59;46.87;96846.25;10552124;28;20040;-48
2023/04/10 22:40:07;;;;;;;9.35;5.50;;;;;;;19.59;46.79;96851.66;10551893;28;20052;-49
2023/04/10 22:45:27;;;;;;;10.50;6.07;;;;;;;19.58;46.73;96843.88;10551489;28;20385;-46
2023/04/10 22:50:46;;;;;;;15.35;6.10;;;;;;;19.58;46.51;96830.34;10551496;28;20044;-48
2023/04/10 22:56:09;;;;;;;8.85;5.60;;;;;;;19.56;46.54;96827.97;10549582;28;20059;-49
2023/04/10 23:01:29;;;;;;;8.65;5.53;;;;;;;19.54;46.39;96827.50;10536136;28;20048;-49
2023/04/10 23:06:48;;;;;;;10.13;5.25;;;;;;;19.53;46.37;96824.00;10556678;28;20052;-48
2023/04/10 23:12:07;;;;;;;8.52;5.47;;;;;;;19.53;46.40;96837.53;10559569;28;20044;-46
2023/04/10 23:17:27;;;;;;;8.82;5.85;;;;;;;19.52;46.30;96802.72;10558726;28;20044;-49
2023/04/10 23:22:46;;;;;;;8.52;4.88;;;;;;;19.51;46.34;96801.94;10558668;28;20040;-47
2023/04/10 23:28:05;;;;;;;8.90;5.03;;;;;;;19.50;46.19;96791.44;10558141;28;20051;-47
2023/04/10 23:33:25;;;;;;;7.72;5.28;;;;;;;19.49;46.19;96773.66;10557897;28;20047;-47
2023/04/10 23:38:44;;;;;;;6.93;4.85;;;;;;;19.49;46.11;96752.81;10557810;28;20455;-47
2023/04/10 23:44:04;;;;;;;7.85;4.78;;;;;;;19.47;46.16;96746.16;10557640;28;20091;-49
2023/04/10 23:49:23;;;;;;;8.82;4.80;;;;;;;19.46;46.19;96745.34;10543744;28;20055;-47
2023/04/10 23:54:43;;;;;;;7.50;4.78;;;;;;;19.45;46.09;96738.38;10557053;28;20405;-47
